Kezdőlap
METAR-TAF:

METAR-TAF

Repülőterek :

Tak, Thaiföld

földrajzi szélesség: 16-53N, földrajzi hosszúság: 099-09E, magasság: 121 m

METAR: hiányzik

Idő: 14:48 (07:48 UTC)

Előrejelzés

A jelentés 2 órával és 48 perccel ezelõtt készült, 05:00 UTC
Az előrejelzés 18-én 06 óra UTC és 19-én 06 óra UTC között érvényes
Észak-északnyugati szél 5 kt
Látótávolság 10 km, vagy több
Szórványos felhőzet 2500 lábon
18-én 09 óra UTC és 18-én 14 óra UTC között ideiglenes
Különbözõ irányokból fújó szél 15 kt széllökések: 30 kt
Látótávolság: 4000 m
Kevés felhő 1800 lábon, Cumulonimbus.
Szakadozott felhőzet 2500 lábon
zivatar, esõ

TAF: VTPT 180500Z 1806/1906 33005KT 9999 SCT025 TEMPO 1809/1814 VRB15G30KT 4000 TSRA FEW018CB BKN025

Meteorológiai megfigyelések és előrejelzések több, mint 4000 repülőtéren (METAR és TAF jelentéseket).

A térképen piros és sárga pontok jelzik az elérhető meteorológiai állomásokat.

Mozgassa az egeret a pont fölött, hogy megjelenjen az állomás neve.

Azután kattintson az időjárási megfigyelések és előrejelzések megtekintéséhez.

A térkép megváltoztatása: kattintson a fekete keresztel jelölt zöld gombra ráközelítéshez, a vonallal jelölt zöld gombra távolításhoz, vagy a zöld nyilakra a szomszédos térképek eléréséhez.


METAR-TAF: